Paoli, IN (47454)

10:34 AM EDT on July 27, 2016 (GMT -0400)
APRSWXNET | | Change Station

Elev 639 ft 38.57 °N, 86.47 °W | Updated 392 days ago

Mostly Cloudy
Mostly Cloudy
83 °F
Feels Like 90 °F
N
3
Wind Variable Wind from North
Gusts mph

Today
High -- | Low -- °F
--% Chance of Precip.
Yesterday
High -- | Low -- °F
Precip. -- in
Pressure 30.02 in
Visibility 9.0 miles
Clouds Clear
Heat Index 90 °F
Dew Point 75 °F
Humidity 76%
Rainfall in
Snow Depth Not available.
6:43 AM 9:00 PM
Last Quarter, 43% visible
METAR KHNB 271415Z 00000KT 9SM CLR 27/23 A3002 RMK AO1
Pressure 30.02 in
Visibility 9.0 miles
Clouds Clear
Heat Index 90 °F
Dew Point 75 °F
Humidity 76%
Rainfall in
Snow Depth Not available.
6:43 AM 9:00 PM
Last Quarter, 43% visible
METAR KHNB 271415Z 00000KT 9SM CLR 27/23 A3002 RMK AO1

10-Day Weather Forecast

Almanac

Astronomy

Jul. 27, 2016 Rise Set
Actual Time
Civil Twilight
Nautical Twilight
Astronomical Twilight
Moon
Length of Visible Light
Length of Day
Tomorrow will be .
, % of the Moon is Illuminated

Today's Extremes

State Highs State Lows

Community

WunderPhotos

Upload Photos

1,927,847 photos uploaded!

WunderBlog® & News

Nearby

Air Quality

  Air Quality AQ Index Pollutant
Not available.

Snow Depth

Station Depth Elevation

Earthquake Activity

City Distance Mag. Time & Date
Minimum magnitude displayed is 2.5.

Coastal Water Temperatures

Place Temperature

Stations

Nearby Weather Stations

Station Location Temp. Windchill Dew Point Humidity Wind Precip. Elev Updated Type
                   

Watches & Warnings

There are currently no watches in effect.